Time;durP1;ratioP1;P1;durP2;ratioP2;P2;SDS_P1;SDS_P2;PMS_P1;PMS_P2;Temp;Humidity;BMP_temperature;BMP_pressure;BME280_temperature;BME280_humidity;BME280_pressure;Samples;Min_cycle;Max_cycle;Signal;HPM_P1;HPM_P2
2021/11/24 00:02:22;;;;;;;59.80;27.40;;;;;;;4.79;84.93;100635.15;230166;1191;140218;-69
2021/11/24 00:07:27;;;;;;;53.90;25.20;;;;;;;4.81;84.91;100633.66;230365;1190;139036;-70
2021/11/24 00:12:32;;;;;;;47.10;27.00;;;;;;;4.86;84.70;100637.69;231125;1190;140986;-74
2021/11/24 00:18:02;;;;;;;43.50;25.00;;;;;;;4.89;84.89;100638.38;229090;1192;140285;-73
2021/11/24 00:23:10;;;;;;;48.60;22.40;;;;;;;4.89;84.65;100643.27;229792;1190;139404;-75
2021/11/24 00:28:33;;;;;;;43.90;20.10;;;;;;;4.89;84.92;100642.77;229850;1190;140343;-72
2021/11/24 00:34:00;;;;;;;28.00;17.00;;;;;;;4.88;84.68;100643.90;230020;1191;140530;-75
2021/11/24 00:39:06;;;;;;;48.40;25.70;;;;;;;4.83;84.81;100643.45;229921;1190;141846;-73
2021/11/24 00:44:10;;;;;;;46.50;22.80;;;;;;;4.83;84.83;100644.88;230037;1192;140488;-71
2021/11/24 00:49:15;;;;;;;41.90;22.00;;;;;;;4.84;84.54;100643.48;229979;1191;142684;-71
2021/11/24 00:54:19;;;;;;;44.40;21.90;;;;;;;4.84;84.72;100641.83;229809;1193;140523;-70
2021/11/24 00:59:24;;;;;;;47.40;23.50;;;;;;;4.86;84.93;100640.16;229935;1191;140317;-72
2021/11/24 01:04:28;;;;;;;42.50;21.00;;;;;;;4.88;84.93;100635.13;229784;1190;141021;-71
2021/11/24 01:09:33;;;;;;;37.20;18.60;;;;;;;4.87;84.42;100635.14;230954;1191;140591;-72
2021/11/24 01:14:38;;;;;;;34.90;19.50;;;;;;;4.85;84.82;100634.23;230741;1192;140459;-72
2021/11/24 01:19:42;;;;;;;32.00;18.40;;;;;;;4.86;84.80;100637.56;230614;1190;141033;-70
2021/11/24 01:24:48;;;;;;;36.40;20.40;;;;;;;4.93;84.55;100632.47;231041;1192;141820;-72
2021/11/24 01:29:52;;;;;;;27.40;16.80;;;;;;;4.95;84.81;100628.33;230772;1190;141338;-71
2021/11/24 01:35:07;;;;;;;23.40;13.00;;;;;;;4.96;84.74;100630.14;229701;1192;140892;-70
2021/11/24 01:40:13;;;;;;;31.30;16.70;;;;;;;4.98;84.58;100623.95;229843;1192;140818;-70
2021/11/24 01:45:34;;;;;;;30.50;18.50;;;;;;;4.95;84.54;100620.52;229169;1192;140739;-71
2021/11/24 01:50:59;;;;;;;23.90;13.10;;;;;;;4.94;84.61;100614.56;229046;1191;139191;-71
2021/11/24 01:56:35;;;;;;;25.10;14.30;;;;;;;4.91;84.63;100612.73;229906;1192;139538;-69
2021/11/24 02:01:45;;;;;;;28.40;16.90;;;;;;;4.90;84.57;100610.27;229000;1192;139902;-69
2021/11/24 02:07:00;;;;;;;25.20;14.80;;;;;;;4.84;84.57;100603.53;230718;1191;139422;-69
2021/11/24 02:12:06;;;;;;;26.00;15.70;;;;;;;4.84;84.87;100597.42;229711;1191;139766;-68
2021/11/24 02:17:44;;;;;;;25.80;15.00;;;;;;;4.85;84.62;100595.16;229586;1192;139893;-68
2021/11/24 02:22:51;;;;;;;30.00;17.30;;;;;;;4.87;84.74;100591.95;229694;1191;140006;-70
2021/11/24 02:27:56;;;;;;;27.00;15.50;;;;;;;4.87;84.78;100582.23;228605;1192;139322;-69
2021/11/24 02:33:02;;;;;;;25.20;14.30;;;;;;;4.86;85.02;100581.13;230144;1192;140424;-70
2021/11/24 02:39:06;;;;;;;;;;;;;;;;;;;;;
2021/11/24 02:44:35;;;;;;;25.00;15.00;;;;;;;4.85;84.71;100569.11;229120;1192;140910;-68
2021/11/24 02:50:03;;;;;;;24.00;14.60;;;;;;;4.83;84.71;100553.34;230217;1192;139952;-72
2021/11/24 02:55:08;;;;;;;28.10;15.70;;;;;;;4.88;84.85;100562.98;229342;1192;140536;-70
2021/11/24 03:00:17;;;;;;;30.70;17.30;;;;;;;4.92;85.05;100556.29;230072;1192;141715;-70
2021/11/24 03:05:45;;;;;;;27.30;15.20;;;;;;;4.95;84.85;100549.83;230293;1192;139132;-70
2021/11/24 03:10:48;;;;;;;25.10;15.40;;;;;;;4.98;84.71;100545.41;230660;1192;139768;-71
2021/11/24 03:15:52;;;;;;;21.50;14.40;;;;;;;4.97;84.58;100546.83;230473;1192;139668;-74
2021/11/24 03:21:09;;;;;;;28.20;16.20;;;;;;;4.95;84.82;100548.41;231172;1191;139119;-74
2021/11/24 03:26:34;;;;;;;25.00;16.50;;;;;;;5.01;84.56;100548.16;229871;1190;139992;-73
2021/11/24 03:31:38;;;;;;;25.80;16.00;;;;;;;5.04;84.53;100549.83;231255;1190;140291;-72
2021/11/24 03:36:43;;;;;;;29.40;17.50;;;;;;;5.00;84.81;100544.48;230224;1192;140470;-71
2021/11/24 03:41:47;;;;;;;22.70;14.30;;;;;;;4.97;84.34;100543.33;230431;1192;139971;-70
2021/11/24 03:47:04;;;;;;;23.60;16.40;;;;;;;4.98;84.47;100543.06;230291;1191;161521;-71
2021/11/24 03:52:12;;;;;;;21.90;13.60;;;;;;;4.94;84.41;100541.64;230217;1192;141055;-71
2021/11/24 03:57:16;;;;;;;24.90;15.40;;;;;;;4.87;84.61;100541.23;229009;1192;139575;-70
2021/11/24 04:02:20;;;;;;;27.30;17.10;;;;;;;4.88;84.39;100542.81;230078;1192;141024;-71
2021/11/24 04:07:23;;;;;;;26.60;15.60;;;;;;;4.89;84.54;100535.64;229008;1192;141275;-70
2021/11/24 04:13:11;;;;;;;26.20;15.90;;;;;;;4.83;84.23;100528.27;228730;1192;140009;-70
2021/11/24 04:18:17;;;;;;;25.80;16.20;;;;;;;4.85;84.48;100518.98;229366;1192;139575;-71
2021/11/24 04:23:25;;;;;;;24.00;14.10;;;;;;;4.85;84.75;100521.36;230148;1192;139856;-72
2021/11/24 04:28:30;;;;;;;26.90;15.20;;;;;;;4.79;84.65;100524.02;229705;1192;139989;-71
2021/11/24 04:33:40;;;;;;;23.10;13.80;;;;;;;4.76;84.48;100527.34;228936;1191;140529;-71
2021/11/24 04:38:45;;;;;;;24.90;14.70;;;;;;;4.78;84.87;100526.04;229654;1192;140391;-71
2021/11/24 04:43:49;;;;;;;23.70;14.20;;;;;;;4.79;84.82;100527.15;229881;1192;141135;-72
2021/11/24 04:48:53;;;;;;;29.00;15.00;;;;;;;4.80;84.92;100524.97;229650;1191;140137;-70
2021/11/24 04:54:21;;;;;;;25.00;15.20;;;;;;;4.82;84.53;100527.52;230214;1190;140550;-70
2021/11/24 04:59:26;;;;;;;22.60;14.80;;;;;;;4.84;84.84;100528.05;229197;1192;140648;-72
2021/11/24 05:04:33;;;;;;;23.50;14.30;;;;;;;4.77;84.57;100523.20;230909;1191;139607;-74
2021/11/24 05:09:37;;;;;;;21.70;14.40;;;;;;;4.79;84.72;100518.37;230286;1191;140248;-76
2021/11/24 05:14:47;;;;;;;24.00;15.00;;;;;;;4.81;84.49;100514.50;231071;1190;140868;-74
2021/11/24 05:19:53;;;;;;;23.80;12.70;;;;;;;4.76;84.43;100511.16;230474;1191;142926;-74
2021/11/24 05:25:06;;;;;;;21.00;13.50;;;;;;;4.78;84.38;100509.53;231361;1192;140112;-78
2021/11/24 05:30:12;;;;;;;28.90;15.80;;;;;;;4.83;84.54;100508.77;231315;1190;141200;-74
2021/11/24 05:35:21;;;;;;;24.90;16.00;;;;;;;4.84;84.59;100513.58;231384;1191;140210;-76
2021/11/24 05:40:26;;;;;;;22.40;13.70;;;;;;;4.84;84.51;100514.80;230422;1190;140528;-72
2021/11/24 05:50:38;;;;;;;16.80;11.10;;;;;;;4.89;84.64;100523.48;230602;1190;140907;-73
2021/11/24 05:55:47;;;;;;;13.10;8.50;;;;;;;4.86;84.66;100521.92;230294;1191;140744;-68
2021/11/24 06:00:52;;;;;;;27.70;14.00;;;;;;;4.89;84.64;100526.70;229874;1191;141203;-75
2021/11/24 06:06:03;;;;;;;21.70;13.70;;;;;;;4.88;84.54;100530.52;229898;1190;140906;-74
2021/11/24 06:11:13;;;;;;;21.50;13.90;;;;;;;4.87;84.64;100536.06;229963;1191;142942;-75
2021/11/24 06:16:28;;;;;;;21.60;13.90;;;;;;;4.87;84.23;100536.80;229077;1191;140707;-71
2021/11/24 06:21:38;;;;;;;22.00;15.00;;;;;;;4.86;84.49;100532.71;228825;1190;139723;-70
2021/11/24 06:26:43;;;;;;;26.50;16.50;;;;;;;4.84;84.47;100532.23;229670;1191;140053;-68
2021/11/24 06:31:47;;;;;;;27.00;13.40;;;;;;;4.86;84.72;100526.21;229332;1192;139530;-71
2021/11/24 06:36:57;;;;;;;27.10;14.60;;;;;;;4.91;84.79;100529.48;229347;1191;140513;-70
2021/11/24 06:42:02;;;;;;;26.50;14.90;;;;;;;4.89;84.64;100531.41;229194;1184;143078;-74
2021/11/24 06:47:07;;;;;;;26.90;17.50;;;;;;;4.88;84.58;100528.64;229823;1192;139963;-75
2021/11/24 06:52:12;;;;;;;27.80;17.20;;;;;;;4.87;84.48;100528.21;230349;1184;140179;-75
2021/11/24 06:57:23;;;;;;;27.30;17.20;;;;;;;4.83;84.97;100533.36;229963;1191;139417;-74
2021/11/24 07:02:27;;;;;;;29.60;15.20;;;;;;;4.86;84.72;100535.73;230123;1192;139526;-71
2021/11/24 07:07:31;;;;;;;26.10;15.90;;;;;;;4.91;84.53;100537.58;230523;1190;140971;-74
2021/11/24 07:12:36;;;;;;;28.40;16.90;;;;;;;4.96;84.78;100530.10;229448;1192;141831;-74
2021/11/24 07:17:40;;;;;;;29.30;17.20;;;;;;;5.01;84.76;100537.66;229519;1192;139628;-74
2021/11/24 07:22:45;;;;;;;26.40;14.10;;;;;;;5.07;84.64;100541.42;230427;1190;142663;-70
2021/11/24 07:27:51;;;;;;;27.50;16.60;;;;;;;5.16;84.49;100547.02;231054;1191;141490;-72
2021/11/24 07:33:04;;;;;;;27.40;15.50;;;;;;;5.17;84.58;100543.50;231248;1190;139927;-69
2021/11/24 07:38:09;;;;;;;24.80;14.90;;;;;;;5.26;84.41;100544.05;230985;1190;139161;-76
2021/11/24 07:43:14;;;;;;;23.90;14.70;;;;;;;5.31;84.14;100543.21;230992;1192;139984;-74
2021/11/24 07:48:18;;;;;;;20.30;12.20;;;;;;;5.32;84.30;100538.52;230681;1190;140200;-75
2021/11/24 07:53:46;;;;;;;24.10;13.40;;;;;;;5.35;84.09;100529.20;230151;1191;140212;-74
2021/11/24 07:58:54;;;;;;;23.70;13.00;;;;;;;5.46;84.26;100528.46;230181;1191;140553;-70
2021/11/24 08:04:06;;;;;;;18.60;11.20;;;;;;;5.56;84.44;100529.33;229378;1192;141027;-76
2021/11/24 08:09:13;;;;;;;21.40;12.60;;;;;;;5.61;84.11;100532.44;230441;1191;140737;-68
2021/11/24 08:14:18;;;;;;;21.10;11.50;;;;;;;5.61;83.82;100537.61;229093;1190;141292;-70
2021/11/24 08:19:23;;;;;;;18.70;11.20;;;;;;;5.63;83.89;100535.73;229418;1192;140593;-71
2021/11/24 08:24:28;;;;;;;17.80;10.60;;;;;;;5.57;84.16;100538.90;229335;1190;140435;-69
2021/11/24 08:29:33;;;;;;;22.60;11.40;;;;;;;5.54;83.99;100542.14;229738;1191;140990;-69
2021/11/24 08:34:38;;;;;;;20.50;14.70;;;;;;;5.57;84.16;100546.63;229295;1192;140316;-73
2021/11/24 08:39:43;;;;;;;17.50;9.20;;;;;;;5.60;83.96;100552.95;229827;1191;162171;-70
2021/11/24 08:44:48;;;;;;;19.70;11.50;;;;;;;5.58;83.94;100551.73;230097;1190;140095;-71
2021/11/24 08:49:53;;;;;;;24.20;14.40;;;;;;;5.64;84.07;100538.20;229739;1191;140722;-73
2021/11/24 08:55:07;;;;;;;22.30;13.70;;;;;;;5.71;84.29;100542.85;229536;1191;141803;-71
2021/11/24 09:00:13;;;;;;;16.60;13.70;;;;;;;5.76;84.40;100546.73;229132;1191;141556;-70
2021/11/24 09:05:19;;;;;;;19.00;12.20;;;;;;;5.77;84.15;100544.48;229461;1191;141046;-68
2021/11/24 09:10:23;;;;;;;17.70;11.00;;;;;;;5.80;83.96;100539.66;229961;1190;140851;-73
2021/11/24 09:15:37;;;;;;;20.10;12.50;;;;;;;5.84;83.99;100538.19;229343;1192;141049;-73
2021/11/24 09:20:50;;;;;;;21.20;11.40;;;;;;;5.92;84.37;100530.15;229441;1191;140627;-68
2021/11/24 09:26:02;;;;;;;17.40;10.90;;;;;;;6.00;83.81;100527.08;230703;1191;140515;-71
2021/11/24 09:31:17;;;;;;;17.40;10.50;;;;;;;6.08;84.15;100517.45;231197;1191;139868;-70
2021/11/24 09:36:20;;;;;;;20.10;11.50;;;;;;;6.12;83.82;100511.77;230981;1191;141270;-71
2021/11/24 09:42:04;;;;;;;17.10;10.60;;;;;;;6.18;83.93;100510.20;230934;1191;141118;-72
2021/11/24 09:47:09;;;;;;;23.60;13.20;;;;;;;6.31;83.49;100507.91;230692;1192;139444;-77
2021/11/24 09:52:18;;;;;;;19.90;12.30;;;;;;;6.45;83.78;100505.84;231090;1191;139736;-73
2021/11/24 09:57:27;;;;;;;18.50;12.30;;;;;;;6.58;83.55;100514.48;229083;1192;139967;-69
2021/11/24 10:02:35;;;;;;;18.50;12.80;;;;;;;6.68;83.82;100509.45;230256;1191;140225;-69
2021/11/24 10:07:46;;;;;;;18.50;13.50;;;;;;;6.68;83.27;100506.73;230629;1184;139511;-71
2021/11/24 10:12:51;;;;;;;18.80;13.10;;;;;;;6.64;83.20;100505.95;229898;1192;139728;-72
2021/11/24 10:18:21;;;;;;;22.20;14.80;;;;;;;6.66;82.85;100506.02;228925;1192;140307;-71
2021/11/24 10:23:36;;;;;;;20.70;14.30;;;;;;;6.69;83.09;100503.02;229707;1191;140240;-72
2021/11/24 10:28:50;;;;;;;23.60;13.70;;;;;;;6.67;83.23;100497.39;229291;1192;139120;-79
2021/11/24 10:33:56;;;;;;;21.00;13.70;;;;;;;6.71;83.13;100490.69;228330;1193;141057;-72
2021/11/24 10:39:00;;;;;;;22.20;15.10;;;;;;;6.82;82.80;100490.08;229512;1193;142350;-73
2021/11/24 10:44:23;;;;;;;22.30;15.20;;;;;;;6.93;83.08;100483.60;229453;1192;140509;-72
2021/11/24 10:49:35;;;;;;;20.80;13.00;;;;;;;7.04;82.63;100468.46;228815;1193;142449;-69
2021/11/24 10:54:45;;;;;;;19.70;13.30;;;;;;;7.19;82.75;100465.62;229810;1191;140244;-69
2021/11/24 10:59:53;;;;;;;19.40;13.50;;;;;;;7.29;82.37;100467.13;229500;1192;140460;-69
2021/11/24 11:05:34;;;;;;;19.20;12.50;;;;;;;7.28;82.06;100462.67;229794;1191;140001;-69
2021/11/24 11:10:41;;;;;;;18.10;12.60;;;;;;;7.21;81.99;100458.98;229347;1191;140289;-74
2021/11/24 11:16:05;;;;;;;19.20;12.80;;;;;;;7.19;82.05;100454.86;230448;1191;140021;-72
2021/11/24 11:21:11;;;;;;;17.10;12.20;;;;;;;7.14;81.73;100452.59;229895;1192;139290;-75
2021/11/24 11:26:30;;;;;;;18.80;11.70;;;;;;;7.14;81.69;100443.11;230495;1191;139378;-67
2021/11/24 11:31:38;;;;;;;21.50;11.50;;;;;;;7.20;81.45;100433.48;229251;1192;140585;-70
2021/11/24 11:36:45;;;;;;;18.20;11.90;;;;;;;7.24;81.16;100431.02;230660;1191;140369;-70
2021/11/24 11:41:54;;;;;;;15.10;10.50;;;;;;;7.29;81.48;100419.80;231261;1191;139315;-72
2021/11/24 11:47:55;;;;;;;15.30;10.60;;;;;;;7.33;81.14;100422.06;231156;1191;141009;-69
2021/11/24 11:53:22;;;;;;;15.80;8.90;;;;;;;7.38;81.30;100417.66;230962;1191;140891;-72
2021/11/24 11:58:29;;;;;;;15.50;10.30;;;;;;;7.34;81.03;100417.43;231194;1190;142244;-69
2021/11/24 12:04:01;;;;;;;15.10;9.60;;;;;;;7.35;81.01;100421.40;230662;1190;141457;-73
2021/11/24 12:10:04;;;;;;;;;;;;;;;;;;;;;
2021/11/24 12:15:17;;;;;;;15.70;11.50;;;;;;;7.27;80.85;100414.39;228410;1192;140430;-71
2021/11/24 12:20:46;;;;;;;18.60;9.60;;;;;;;7.31;80.98;100410.50;229521;1191;141581;-74
2021/11/24 12:26:18;;;;;;;12.60;9.60;;;;;;;7.33;80.89;100408.39;230121;1190;140219;-72
2021/11/24 12:31:30;;;;;;;12.00;9.40;;;;;;;7.30;80.91;100407.56;229171;1193;138900;-74
2021/11/24 12:36:36;;;;;;;11.30;8.00;;;;;;;7.27;80.86;100396.98;229630;1191;139401;-71
2021/11/24 12:41:41;;;;;;;12.70;9.70;;;;;;;7.26;80.71;100401.75;229153;1192;140814;-73
2021/11/24 12:46:47;;;;;;;12.30;8.80;;;;;;;7.22;80.79;100395.60;229466;1193;141231;-75
2021/11/24 12:51:53;;;;;;;12.40;8.40;;;;;;;7.12;80.88;100400.88;229170;1190;139929;-71
2021/11/24 12:57:05;;;;;;;15.30;10.40;;;;;;;7.02;80.69;100397.13;229097;1193;144427;-71
2021/11/24 13:02:14;;;;;;;15.00;9.30;;;;;;;6.99;80.86;100394.23;229252;1192;140363;-74
2021/11/24 13:07:34;;;;;;;15.50;10.10;;;;;;;6.88;80.65;100394.48;229983;1192;142483;-71
2021/11/24 13:12:38;;;;;;;14.40;11.30;;;;;;;6.79;80.74;100388.83;230140;1192;139206;-74
2021/11/24 13:17:51;;;;;;;12.10;8.20;;;;;;;6.76;80.99;100387.26;229792;1191;140222;-71
2021/11/24 13:22:58;;;;;;;12.30;8.90;;;;;;;6.79;80.64;100384.95;228978;1192;140824;-72
2021/11/24 13:28:08;;;;;;;15.70;11.00;;;;;;;6.84;81.20;100379.08;229790;1192;141064;-72
2021/11/24 13:33:17;;;;;;;15.90;11.50;;;;;;;6.83;80.81;100374.63;230229;1192;140569;-71
2021/11/24 13:38:28;;;;;;;16.50;10.20;;;;;;;6.79;80.41;100374.32;229931;1191;140435;-69
2021/11/24 13:43:35;;;;;;;10.20;8.60;;;;;;;6.80;80.58;100374.56;230089;1191;151405;-71
2021/11/24 13:48:41;;;;;;;17.10;11.10;;;;;;;6.78;80.67;100371.00;231308;1190;139236;-73
2021/11/24 13:53:46;;;;;;;14.50;9.90;;;;;;;6.76;81.03;100367.92;229595;1191;140354;-70
2021/11/24 13:59:30;;;;;;;13.20;9.90;;;;;;;6.75;80.96;100369.18;231314;1191;139827;-73
2021/11/24 14:05:05;;;;;;;13.50;9.60;;;;;;;6.78;80.81;100363.05;230793;1191;140698;-72
2021/11/24 14:11:02;;;;;;;15.80;10.70;;;;;;;6.76;80.92;100362.35;230281;1191;139685;-71
2021/11/24 14:16:08;;;;;;;13.60;10.30;;;;;;;6.66;80.72;100358.42;230163;1192;140670;-74
2021/11/24 14:21:17;;;;;;;14.40;10.00;;;;;;;6.68;80.76;100356.20;230067;1192;139339;-70
2021/11/24 14:26:22;;;;;;;16.70;11.10;;;;;;;6.65;80.89;100352.84;230074;1192;139705;-71
2021/11/24 14:31:31;;;;;;;14.60;9.70;;;;;;;6.59;81.06;100355.27;229388;1192;139742;-72
2021/11/24 14:36:59;;;;;;;13.90;10.40;;;;;;;6.49;80.56;100348.02;229895;1192;138913;-72
2021/11/24 14:42:05;;;;;;;18.20;10.80;;;;;;;6.37;80.85;100351.30;228926;1192;139853;-74
2021/11/24 14:47:53;;;;;;;14.60;10.50;;;;;;;6.36;81.02;100353.01;229461;1192;139628;-69
2021/11/24 14:52:58;;;;;;;17.00;11.10;;;;;;;6.33;81.28;100360.35;228260;1186;139482;-70
2021/11/24 14:58:42;;;;;;;14.90;10.70;;;;;;;6.35;81.47;100360.94;229457;1192;139856;-71
2021/11/24 15:03:50;;;;;;;17.00;10.50;;;;;;;6.35;81.38;100360.20;229638;1191;141716;-72
2021/11/24 15:08:54;;;;;;;;;;;;;;;6.39;81.35;100363.21;229814;1192;139267;-72
2021/11/24 15:14:10;;;;;;;15.40;10.50;;;;;;;6.33;81.63;100361.85;230273;1191;125667;-71
2021/11/24 15:19:15;;;;;;;15.90;11.00;;;;;;;6.31;81.49;100356.39;229809;1191;139160;-71
2021/11/24 15:24:22;;;;;;;13.40;9.80;;;;;;;6.35;81.52;100350.31;230351;1190;140793;-72
2021/11/24 15:29:57;;;;;;;18.50;9.40;;;;;;;6.34;81.38;100347.57;229503;1191;139378;-70
2021/11/24 15:35:41;;;;;;;;;;;;;;;;;;;;;
2021/11/24 15:41:02;;;;;;;12.70;9.60;;;;;;;6.23;81.53;100346.45;230723;1190;139551;-73
2021/11/24 15:46:47;;;;;;;13.30;9.70;;;;;;;6.25;81.50;100342.06;231022;1190;139800;-73
2021/11/24 15:51:52;;;;;;;15.50;10.90;;;;;;;6.28;81.39;100338.30;231065;1192;140167;-71
2021/11/24 15:57:01;;;;;;;12.80;6.70;;;;;;;6.27;81.70;100336.86;230967;1190;138829;-73
2021/11/24 16:02:14;;;;;;;13.00;8.10;;;;;;;6.22;81.08;100340.17;230448;1190;139971;-73
2021/11/24 16:07:21;;;;;;;16.20;9.70;;;;;;;6.23;81.26;100340.38;229126;1191;141791;-72
2021/11/24 16:12:25;;;;;;;15.10;8.70;;;;;;;6.22;81.16;100338.86;229861;1192;139898;-71
2021/11/24 16:17:33;;;;;;;11.40;6.70;;;;;;;6.13;81.17;100331.67;229845;1192;139940;-77
2021/11/24 16:23:14;;;;;;;11.00;8.10;;;;;;;6.04;81.10;100331.28;229587;1192;139900;-77
2021/11/24 16:28:20;;;;;;;13.00;8.40;;;;;;;6.03;80.86;100324.02;230715;1190;141349;-76
2021/11/24 16:33:24;;;;;;;13.00;8.20;;;;;;;6.03;81.39;100320.80;230255;1192;140423;-76
2021/11/24 16:38:29;;;;;;;12.90;9.30;;;;;;;6.01;81.25;100321.77;229729;1192;139495;-77
2021/11/24 16:44:02;;;;;;;13.20;7.80;;;;;;;5.96;81.32;100322.41;229308;1192;138658;-74
2021/11/24 16:49:07;;;;;;;13.10;8.20;;;;;;;5.95;81.45;100321.22;228750;1192;140518;-76
2021/11/24 16:54:11;;;;;;;23.50;9.60;;;;;;;5.95;81.24;100318.08;229133;1192;139235;-71
2021/11/24 16:59:35;;;;;;;12.00;8.80;;;;;;;5.91;81.56;100310.50;229473;1192;139054;-73
2021/11/24 17:04:40;;;;;;;21.70;8.80;;;;;;;5.87;81.38;100311.17;229754;1192;140144;-73
2021/11/24 17:09:45;;;;;;;17.60;8.60;;;;;;;5.87;81.57;100311.52;230352;1192;140087;-74
2021/11/24 17:14:50;;;;;;;12.60;8.00;;;;;;;5.85;81.49;100305.88;229807;1192;139212;-72
2021/11/24 17:19:54;;;;;;;12.80;8.10;;;;;;;5.83;81.42;100305.15;228775;1192;140489;-70
2021/11/24 17:24:58;;;;;;;10.70;7.40;;;;;;;5.81;81.44;100303.92;228640;1187;141715;-73
2021/11/24 17:30:05;;;;;;;11.50;8.00;;;;;;;5.84;81.43;100301.82;229072;1192;140262;-73
2021/11/24 17:35:12;;;;;;;10.30;6.70;;;;;;;5.81;81.41;100294.56;229288;1192;140708;-69
2021/11/24 17:40:18;;;;;;;;;;;;;;;5.78;81.79;100293.36;231191;1191;139375;-72
2021/11/24 17:45:40;;;;;;;10.00;7.90;;;;;;;5.80;81.59;100293.54;231829;1192;127381;-75
2021/11/24 17:50:52;;;;;;;11.10;6.40;;;;;;;5.83;81.72;100293.95;230488;1192;139441;-71
2021/11/24 17:56:00;;;;;;;20.20;9.50;;;;;;;5.86;81.77;100291.50;231092;1190;141051;-74
2021/11/24 18:01:12;;;;;;;14.20;9.30;;;;;;;5.86;81.61;100289.35;230973;1190;139075;-71
2021/11/24 18:06:30;;;;;;;12.90;8.80;;;;;;;5.88;81.75;100282.94;230140;1184;140556;-69
2021/11/24 18:11:54;;;;;;;16.30;10.30;;;;;;;5.90;81.61;100275.09;230298;1190;139651;-68
2021/11/24 18:17:02;;;;;;;15.10;9.80;;;;;;;5.90;81.79;100268.98;229080;1192;140029;-67
2021/11/24 18:22:07;;;;;;;13.30;8.50;;;;;;;5.88;81.54;100267.45;229859;1191;140459;-68
2021/11/24 18:27:14;;;;;;;17.70;9.60;;;;;;;5.87;81.31;100267.54;229438;1191;141254;-66
2021/11/24 18:32:19;;;;;;;15.00;9.40;;;;;;;5.86;81.70;100266.14;229435;1191;142165;-70
2021/11/24 18:37:43;;;;;;;16.20;10.90;;;;;;;5.81;81.97;100264.40;229826;1192;141781;-69
2021/11/24 18:42:48;;;;;;;16.40;11.20;;;;;;;5.72;81.83;100264.58;229521;1190;140979;-68
2021/11/24 18:47:53;;;;;;;18.40;11.90;;;;;;;5.71;81.73;100264.00;229472;1192;140874;-70
2021/11/24 18:53:00;;;;;;;18.40;11.10;;;;;;;5.72;81.64;100257.74;229638;1192;141491;-68
2021/11/24 18:58:09;;;;;;;26.00;15.20;;;;;;;5.69;81.99;100260.04;229457;1192;141800;-68
2021/11/24 19:03:20;;;;;;;21.90;12.30;;;;;;;5.65;82.15;100259.84;229265;1192;139922;-74
2021/11/24 19:09:11;;;;;;;21.50;13.70;;;;;;;5.64;81.74;100258.23;230098;1192;140900;-76
2021/11/24 19:14:19;;;;;;;22.00;14.20;;;;;;;5.67;82.24;100245.48;229716;1192;140512;-70
2021/11/24 19:19:23;;;;;;;24.90;17.30;;;;;;;5.66;82.31;100246.00;229872;1192;139923;-70
2021/11/24 19:24:29;;;;;;;24.80;14.90;;;;;;;5.66;82.17;100251.46;230186;1192;140539;-68
2021/11/24 19:29:36;;;;;;;32.10;15.60;;;;;;;5.68;82.02;100249.64;229375;1192;141261;-73
2021/11/24 19:34:42;;;;;;;26.80;17.70;;;;;;;5.69;82.05;100251.90;229594;1192;140993;-73
2021/11/24 19:39:49;;;;;;;23.20;14.40;;;;;;;5.67;82.28;100248.34;229347;1191;140612;-77
2021/11/24 19:44:54;;;;;;;27.50;16.50;;;;;;;5.64;82.13;100241.80;229747;1192;140341;-73
2021/11/24 19:50:00;;;;;;;24.80;15.70;;;;;;;5.68;82.33;100241.38;230984;1191;141537;-72
2021/11/24 19:55:09;;;;;;;27.60;15.20;;;;;;;5.72;82.14;100241.17;230558;1192;140404;-69
2021/11/24 20:00:39;;;;;;;27.20;16.60;;;;;;;5.73;82.13;100238.26;230487;1191;140861;-71
2021/11/24 20:05:42;;;;;;;22.30;14.70;;;;;;;5.76;82.21;100230.67;229734;1192;141793;-72
2021/11/24 20:10:53;;;;;;;25.20;16.60;;;;;;;5.79;82.06;100229.64;230379;1192;141038;-71
2021/11/24 20:16:00;;;;;;;27.00;17.80;;;;;;;5.81;82.06;100227.13;230255;1192;140679;-72
2021/11/24 20:21:08;;;;;;;29.50;15.70;;;;;;;5.82;82.19;100223.83;229901;1192;140276;-73
2021/11/24 20:26:13;;;;;;;31.60;17.20;;;;;;;5.82;82.21;100216.38;228819;1192;140438;-71
2021/11/24 20:31:18;;;;;;;27.70;16.50;;;;;;;5.85;82.29;100212.77;229271;1192;140835;-71
2021/11/24 20:36:24;;;;;;;30.30;18.70;;;;;;;5.81;81.99;100216.14;229473;1191;140301;-74
2021/11/24 20:41:30;;;;;;;31.10;19.10;;;;;;;5.76;81.67;100212.27;229277;1190;140927;-76
2021/11/24 20:46:36;;;;;;;27.40;18.80;;;;;;;5.75;82.29;100211.74;229292;1192;141969;-72
2021/11/24 20:51:41;;;;;;;27.00;16.40;;;;;;;5.77;82.48;100208.38;229230;1191;154077;-75
2021/11/24 20:56:46;;;;;;;33.60;18.10;;;;;;;5.77;82.19;100206.19;229146;1191;142046;-70
2021/11/24 21:01:54;;;;;;;30.00;17.70;;;;;;;5.75;81.92;100204.09;228843;1190;141213;-73
2021/11/24 21:06:58;;;;;;;;;;;;;;;5.76;82.09;100203.36;230003;1192;140776;-76
2021/11/24 21:12:03;;;;;;;31.30;18.90;;;;;;;5.72;82.18;100202.07;231029;1190;126432;-73
2021/11/24 21:17:09;;;;;;;31.60;18.30;;;;;;;5.71;82.20;100197.91;229394;1192;140149;-72
2021/11/24 21:22:14;;;;;;;34.00;20.40;;;;;;;5.70;82.13;100196.94;229393;1192;141774;-79
2021/11/24 21:27:49;;;;;;;;;;;;;;;;;;;;;
2021/11/24 21:32:57;;;;;;;34.10;21.10;;;;;;;5.71;81.89;100191.92;230371;1191;141260;-74
2021/11/24 21:38:03;;;;;;;33.30;21.00;;;;;;;5.70;82.14;100193.99;230727;1191;139498;-79
2021/11/24 21:43:12;;;;;;;30.80;17.80;;;;;;;5.72;81.98;100193.33;230918;1184;139912;-71
2021/11/24 21:48:16;;;;;;;30.10;20.20;;;;;;;5.77;81.41;100187.88;230649;1192;140023;-72
2021/11/24 21:53:29;;;;;;;35.40;21.90;;;;;;;5.79;81.50;100184.02;231244;1191;141155;-76
2021/11/24 21:58:41;;;;;;;29.00;18.70;;;;;;;5.75;81.59;100174.83;230895;1191;139313;-73
2021/11/24 22:03:46;;;;;;;31.60;19.60;;;;;;;5.73;81.46;100165.63;231126;1191;140385;-72
2021/11/24 22:14:17;;;;;;;33.60;20.20;;;;;;;5.75;81.34;100153.38;229732;1191;139832;-72
2021/11/24 22:19:43;;;;;;;34.20;20.90;;;;;;;5.72;81.99;100151.08;230025;1191;139383;-73
2021/11/24 22:24:50;;;;;;;34.60;19.70;;;;;;;5.68;81.76;100142.06;229887;1192;142296;-71
2021/11/24 22:30:22;;;;;;;34.40;23.10;;;;;;;5.67;81.58;100145.30;228855;1193;140204;-73
2021/11/24 22:35:31;;;;;;;24.20;16.10;;;;;;;5.65;81.65;100133.61;229436;1192;139566;-73
2021/11/24 22:40:36;;;;;;;25.80;16.50;;;;;;;5.64;81.82;100132.22;229188;1192;140220;-72
2021/11/24 22:45:41;;;;;;;28.30;16.20;;;;;;;5.60;81.54;100127.27;228660;1191;139229;-68
2021/11/24 22:50:46;;;;;;;29.90;18.80;;;;;;;5.60;81.54;100124.45;229068;1191;140500;-71
2021/11/24 22:55:51;;;;;;;23.30;15.20;;;;;;;5.61;81.59;100116.16;229639;1191;140722;-75
2021/11/24 23:00:56;;;;;;;27.40;15.30;;;;;;;5.57;81.38;100110.88;229503;1191;149991;-72
2021/11/24 23:06:01;;;;;;;48.50;24.70;;;;;;;5.53;81.14;100109.11;229885;1192;139966;-78
2021/11/24 23:11:06;;;;;;;24.60;14.20;;;;;;;5.51;80.68;100100.02;228829;1192;140658;-74
2021/11/24 23:16:11;;;;;;;203.10;90.50;;;;;;;5.45;80.49;100099.48;229710;1191;140226;-72
2021/11/24 23:21:21;;;;;;;51.20;30.70;;;;;;;5.45;80.65;100092.63;230193;1191;139078;-72
2021/11/24 23:26:25;;;;;;;44.00;27.10;;;;;;;5.40;80.50;100076.93;229536;1191;139121;-72
2021/11/24 23:31:49;;;;;;;30.60;17.70;;;;;;;5.36;80.21;100072.55;230735;1191;139194;-71
2021/11/24 23:36:54;;;;;;;26.30;16.70;;;;;;;5.39;80.43;100065.70;230057;1191;140420;-73
2021/11/24 23:41:59;;;;;;;30.40;20.10;;;;;;;5.43;80.63;100062.40;230192;1191;141205;-77
2021/11/24 23:47:06;;;;;;;29.30;21.50;;;;;;;5.45;80.85;100063.06;229935;1191;165580;-72